Impacts TAF Board
For situational awareness. Not to be used for flight planning purposes.
IDs:

KDLS - The Dalles Muni, OR, US

Issued at 1120 UTC 15 Jul 2020
Updated at 1248 UTC 15 Jul 2020
Potential Impact None Slight Moderate High
Time1153Z 15/13Z 15/14Z 15/15Z 15/16Z 15/17Z 15/18Z 15/19Z 15/20Z 15/21Z 15/22Z 15/23Z 16/00Z 16/01Z>>
Type OBS PRVL PRVL PRVL PRVL PRVL PRVL PRVL PRVL PRVL PRVL PRVL PRVL PRVL
VIS 10 >6 >6 >6 >6 >6 >6 >6 >6 >6 >6 >6 >6 >6
CIG -- -- -- -- -- -- -- -- -- -- -- -- -- --
Cover CLR SKC SKC SKC SKC SKC SKC SKC SKC SKC SKC SKC SKC SKC
FltCat VFR VFR VFR VFR VFR VFR VFR VFR VFR VFR VFR VFR VFR VFR
WX -- -- -- -- -- -- -- -- -- -- -- -- -- --
WDir 280 300 300 300 300 300 300 300 320 320 320 320 320 320
WSpd 9 8 8 8 8 8 8 8 15 15 15 15 15 15
WGst 15 -- -- -- -- -- -- -- 22 22 22 22 22 22
Raw TAF
KDLS 151120Z 1512/1612 30008KT P6SM SKC
  FM152000 32015G22KT P6SM SKC
  FM160500 31011KT P6SM SKC


Raw METAR
KDLS 151153Z AUTO 28009G15KT 240V320 10SM CLR 19/09 A3001 RMK AO2 SLP162 T01890094 10244 20172 51005
KDLS 151053Z AUTO 28005KT 10SM CLR 19/09 A3001 RMK AO2 SLP160 T01890094
KDLS 150953Z AUTO 30009KT 10SM CLR 20/09 A3001 RMK AO2 SLP159 T02000094

METAR Board
Radar Display
Forecast Discussion
For situational awareness. Not to be used for flight planning purposes.